All Spectrum Aviation - Van Nuys Airport - KVNY

HOME

Condor Squadron KVNY Webcam

Visit our Electronics Store

Condor Squadron Webcam - Van Nuys Airport - KVNY
Picture taken: Fri, 15 Feb 2019 23:16:19 -0800
YouTube Channel!    Latest Timelapse Movie    Full Size Image    Regular Size Image    

2019/02/16 06:51 KVNY 160651Z AUTO 00000KT 10SM FEW020 FEW075 OVC090 10/07 A3007 RMK AO2 RAE04 SLP180 P0000 T01000067

HOME

Condor Squadron KVNY Webcam

Visit our Electronics Store